createdAt,value
2023-03-25T00:01:16.599Z,22.98
2023-03-25T00:03:46.767Z,23.98
2023-03-25T00:06:14.314Z,18.25
2023-03-25T00:08:41.723Z,15.13
2023-03-25T00:11:09.003Z,11.52
2023-03-25T00:13:36.595Z,14.32
2023-03-25T00:16:04.793Z,11.27
2023-03-25T00:18:35.641Z,11.85
2023-03-25T00:21:04.494Z,17.62
2023-03-25T00:23:32.408Z,18.27
2023-03-25T00:26:03.394Z,17.85
2023-03-25T00:28:32.789Z,21.75
2023-03-25T00:31:02.152Z,12.37
2023-03-25T00:33:29.517Z,10.98
2023-03-25T00:35:59.620Z,9.57
2023-03-25T00:38:34.455Z,9.95
2023-03-25T00:41:26.126Z,17.55
2023-03-25T00:43:55.815Z,9.20
2023-03-25T00:46:28.018Z,10.60
2023-03-25T00:48:55.481Z,10.77
2023-03-25T00:51:23.589Z,8.45
2023-03-25T00:54:01.520Z,6.97
2023-03-25T00:56:29.717Z,7.03
2023-03-25T00:58:57.543Z,6.35
2023-03-25T01:01:29.824Z,6.18
2023-03-25T01:03:58.628Z,10.27
2023-03-25T01:06:29.627Z,13.05
2023-03-25T01:08:58.007Z,11.55
2023-03-25T01:11:31.348Z,8.77
2023-03-25T01:14:00.045Z,10.80
2023-03-25T01:16:28.280Z,8.15
2023-03-25T01:18:56.289Z,11.65
2023-03-25T01:21:23.986Z,6.90
2023-03-25T01:23:50.985Z,6.20
2023-03-25T01:26:18.058Z,5.95
2023-03-25T01:28:45.900Z,7.15
2023-03-25T01:31:15.238Z,6.05
2023-03-25T01:33:42.609Z,5.80
2023-03-25T01:36:13.176Z,6.45
2023-03-25T01:38:41.904Z,7.90
2023-03-25T01:41:10.296Z,7.55
2023-03-25T01:43:37.491Z,6.80
2023-03-25T01:46:04.690Z,6.60
2023-03-25T01:48:40.790Z,6.22
2023-03-25T01:51:11.656Z,4.35
2023-03-25T01:53:40.588Z,5.25
2023-03-25T01:56:10.688Z,7.68
2023-03-25T01:58:38.039Z,4.68
2023-03-25T02:01:05.543Z,4.32
2023-03-25T02:03:37.468Z,4.28
2023-03-25T02:06:14.730Z,5.85
2023-03-25T02:08:42.226Z,6.45
2023-03-25T02:11:11.250Z,3.62
2023-03-25T02:13:41.485Z,5.18
2023-03-25T02:16:45.817Z,5.72
2023-03-25T02:19:18.466Z,4.97
2023-03-25T02:22:25.933Z,5.90
2023-03-25T02:25:14.200Z,4.90
2023-03-25T02:28:02.269Z,7.28
2023-03-25T02:30:57.223Z,3.60
2023-03-25T02:33:49.084Z,13.00
2023-03-25T02:36:43.111Z,8.70
2023-03-25T02:39:28.306Z,5.32
2023-03-25T02:42:06.355Z,3.00
2023-03-25T02:44:50.780Z,3.87
2023-03-25T02:47:20.487Z,4.20
2023-03-25T02:49:54.919Z,2.90
2023-03-25T02:52:29.445Z,2.80
2023-03-25T02:55:04.499Z,4.72
2023-03-25T02:57:35.397Z,6.50
2023-03-25T03:00:11.092Z,5.72
2023-03-25T03:02:39.370Z,6.05
2023-03-25T03:05:23.363Z,3.22
2023-03-25T03:08:10.438Z,5.32
2023-03-25T03:11:07.593Z,7.90
2023-03-25T03:13:49.431Z,10.80
2023-03-25T03:16:19.871Z,6.00
2023-03-25T03:18:54.016Z,3.87
2023-03-25T03:21:30.612Z,4.03
2023-03-25T03:24:12.653Z,3.33
2023-03-25T03:26:39.573Z,4.53
2023-03-25T03:29:14.418Z,3.08
2023-03-25T03:31:48.451Z,3.90
2023-03-25T03:34:48.691Z,2.25
2023-03-25T03:37:28.692Z,7.40
2023-03-25T03:39:58.116Z,3.53
2023-03-25T03:42:49.169Z,3.87
2023-03-25T03:45:39.615Z,2.42
2023-03-25T03:48:13.128Z,3.85
2023-03-25T03:50:48.944Z,2.75
2023-03-25T03:53:23.826Z,4.20
2023-03-25T03:55:56.100Z,1.85
2023-03-25T03:58:30.161Z,2.55
2023-03-25T04:01:16.957Z,2.60
2023-03-25T04:03:52.439Z,3.20
2023-03-25T04:06:35.655Z,1.90
2023-03-25T04:09:18.747Z,2.12
2023-03-25T04:11:56.866Z,2.45
2023-03-25T04:14:24.033Z,2.70
2023-03-25T04:16:53.320Z,5.62
2023-03-25T04:19:20.330Z,1.70
2023-03-25T04:21:48.215Z,7.75
2023-03-25T04:24:17.045Z,7.80
2023-03-25T04:26:44.343Z,3.87
2023-03-25T04:29:11.312Z,5.65
2023-03-25T04:31:46.638Z,3.60
2023-03-25T04:34:15.092Z,3.87
2023-03-25T04:36:43.316Z,3.67
2023-03-25T04:39:12.922Z,4.82
2023-03-25T04:41:40.166Z,5.10
2023-03-25T04:44:08.143Z,6.37
2023-03-25T04:46:36.727Z,4.87
2023-03-25T04:49:06.499Z,4.80
2023-03-25T04:51:33.717Z,10.75
2023-03-25T04:54:01.154Z,9.63
2023-03-25T04:56:28.208Z,9.82
2023-03-25T04:58:55.357Z,6.93
2023-03-25T05:01:32.778Z,6.12
2023-03-25T05:04:07.744Z,6.57
2023-03-25T05:06:38.637Z,5.75
2023-03-25T05:09:07.259Z,10.10
2023-03-25T05:11:37.286Z,6.32
2023-03-25T05:14:04.308Z,5.20
2023-03-25T05:16:31.325Z,4.90
2023-03-25T05:18:58.695Z,3.25
2023-03-25T05:21:25.884Z,4.18
2023-03-25T05:23:52.876Z,8.50
2023-03-25T05:26:21.007Z,13.93
2023-03-25T05:28:51.681Z,7.82
2023-03-25T05:31:19.237Z,4.85
2023-03-25T05:33:46.501Z,2.83
2023-03-25T05:36:18.853Z,4.03
2023-03-25T05:38:45.795Z,3.60
2023-03-25T05:41:17.261Z,5.50
2023-03-25T05:43:53.378Z,3.62
2023-03-25T05:46:20.676Z,2.25
2023-03-25T05:48:47.666Z,2.53
2023-03-25T05:51:22.090Z,4.45
2023-03-25T05:53:53.677Z,2.20
2023-03-25T05:56:23.357Z,1.65
2023-03-25T06:01:31.755Z,2.65
2023-03-25T06:04:05.586Z,2.12
2023-03-25T06:06:34.492Z,2.22
2023-03-25T06:09:02.544Z,3.70
2023-03-25T06:11:30.078Z,1.50
2023-03-25T06:13:57.532Z,2.83
2023-03-25T06:16:30.173Z,2.12
2023-03-25T06:19:00.402Z,3.45
2023-03-25T06:21:29.556Z,1.85
2023-03-25T06:23:58.948Z,2.73
2023-03-25T06:26:26.727Z,1.62
2023-03-25T06:28:54.925Z,1.87
2023-03-25T06:31:33.934Z,0.77
2023-03-25T06:34:01.760Z,1.30
2023-03-25T06:36:28.799Z,0.90
2023-03-25T06:38:55.858Z,2.22
2023-03-25T06:41:26.066Z,2.37
2023-03-25T06:43:53.539Z,0.60
2023-03-25T06:46:20.516Z,1.52
2023-03-25T06:48:47.634Z,0.80
2023-03-25T06:51:14.693Z,4.75
2023-03-25T06:53:41.690Z,1.85
2023-03-25T06:56:09.099Z,1.80
2023-03-25T06:58:36.126Z,1.65
2023-03-25T07:01:07.755Z,1.00
2023-03-25T07:03:36.938Z,1.48
2023-03-25T07:06:06.020Z,1.10
2023-03-25T07:08:33.376Z,2.17
2023-03-25T07:11:08.286Z,1.05
2023-03-25T07:13:35.688Z,2.12
2023-03-25T07:16:03.376Z,1.05
2023-03-25T07:18:30.460Z,2.37
2023-03-25T07:20:57.604Z,1.87
2023-03-25T07:23:24.642Z,1.05
2023-03-25T07:25:51.948Z,3.20
2023-03-25T07:28:19.373Z,2.33
2023-03-25T07:30:46.764Z,1.12
2023-03-25T07:33:13.734Z,2.03
2023-03-25T07:35:40.844Z,1.23
2023-03-25T07:38:08.093Z,1.60
2023-03-25T07:40:35.078Z,1.25
2023-03-25T07:43:01.989Z,2.37
2023-03-25T07:45:29.221Z,2.30
2023-03-25T07:47:56.365Z,1.25
2023-03-25T07:50:25.257Z,3.37
2023-03-25T07:55:20.110Z,2.15
2023-03-25T07:57:47.278Z,4.65
2023-03-25T08:00:14.975Z,0.85
2023-03-25T08:02:42.311Z,0.95
2023-03-25T08:05:09.938Z,2.05
2023-03-25T08:07:36.868Z,2.50
2023-03-25T08:10:04.363Z,4.03
2023-03-25T08:12:31.370Z,3.35
2023-03-25T08:15:00.214Z,2.00
2023-03-25T08:17:27.362Z,1.90
2023-03-25T08:19:54.373Z,2.83
2023-03-25T08:22:21.311Z,2.55
2023-03-25T08:24:48.269Z,2.40
2023-03-25T08:27:16.674Z,2.12
2023-03-25T08:29:45.114Z,2.45
2023-03-25T08:32:12.018Z,6.93
2023-03-25T08:34:40.268Z,2.90
2023-03-25T08:37:10.317Z,1.83
2023-03-25T08:42:09.123Z,2.20
2023-03-25T08:44:36.701Z,3.73
2023-03-25T08:47:04.274Z,5.60
2023-03-25T08:49:31.356Z,3.80
2023-03-25T08:52:00.458Z,3.33
2023-03-25T08:54:29.351Z,3.05
2023-03-25T08:56:56.546Z,2.92
2023-03-25T08:59:23.619Z,3.60
2023-03-25T09:01:50.886Z,5.95
2023-03-25T09:04:17.986Z,3.37
2023-03-25T09:06:47.176Z,1.25
2023-03-25T09:09:16.886Z,4.60
2023-03-25T09:11:44.699Z,2.40
2023-03-25T09:14:11.817Z,1.87
2023-03-25T09:16:38.898Z,4.40
2023-03-25T09:19:06.052Z,1.45
2023-03-25T09:21:33.043Z,4.20
2023-03-25T09:24:00.149Z,1.37
2023-03-25T09:26:27.361Z,1.95
2023-03-25T09:28:56.550Z,3.05
2023-03-25T09:31:24.374Z,3.72
2023-03-25T09:33:51.492Z,4.12
2023-03-25T09:36:18.504Z,2.25
2023-03-25T09:38:45.953Z,3.03
2023-03-25T09:41:38.951Z,5.32
2023-03-25T09:44:15.333Z,3.08
2023-03-25T09:46:44.274Z,3.15
2023-03-25T09:49:19.938Z,2.22
2023-03-25T09:51:49.944Z,2.95
2023-03-25T09:54:16.891Z,3.03
2023-03-25T09:56:44.949Z,2.30
2023-03-25T09:59:21.614Z,1.80
2023-03-25T10:02:04.622Z,3.05
2023-03-25T10:04:53.564Z,2.67
2023-03-25T10:07:55.097Z,3.25
2023-03-25T10:10:24.853Z,6.70
2023-03-25T10:12:56.322Z,5.72
2023-03-25T10:15:41.225Z,4.40
2023-03-25T10:18:28.044Z,4.20
2023-03-25T10:21:10.862Z,3.20
2023-03-25T10:23:43.279Z,2.20
2023-03-25T10:26:21.050Z,1.33
2023-03-25T10:29:05.357Z,2.75
2023-03-25T10:31:37.977Z,1.92
2023-03-25T10:34:10.892Z,1.67
2023-03-25T10:36:45.472Z,3.10
2023-03-25T10:39:19.272Z,1.52
2023-03-25T10:42:18.555Z,2.60
2023-03-25T10:44:47.296Z,2.28
2023-03-25T10:47:19.919Z,1.67
2023-03-25T10:49:48.736Z,1.85
2023-03-25T10:52:16.691Z,1.77
2023-03-25T10:54:48.289Z,3.83
2023-03-25T10:57:28.534Z,1.92
2023-03-25T11:00:01.625Z,2.70
2023-03-25T11:02:30.924Z,1.65
2023-03-25T11:05:03.391Z,2.45
2023-03-25T11:07:33.946Z,3.25
2023-03-25T11:10:26.371Z,3.50
2023-03-25T11:12:55.111Z,2.28
2023-03-25T11:15:26.060Z,3.03
2023-03-25T11:18:13.981Z,3.25
2023-03-25T11:20:48.503Z,2.12
2023-03-25T11:23:26.628Z,2.65
2023-03-25T11:25:55.888Z,5.00
2023-03-25T11:28:38.435Z,1.77
2023-03-25T11:31:11.684Z,4.50
2023-03-25T11:33:40.063Z,1.90
2023-03-25T11:36:20.824Z,3.67
2023-03-25T11:38:53.932Z,3.50
2023-03-25T11:41:20.976Z,3.58
2023-03-25T11:43:50.063Z,0.90
2023-03-25T11:46:21.364Z,1.92
2023-03-25T11:48:50.411Z,2.70
2023-03-25T11:51:24.214Z,0.55
2023-03-25T11:54:03.362Z,2.20
2023-03-25T11:56:39.339Z,1.87
2023-03-25T11:59:30.640Z,1.67
2023-03-25T12:02:03.394Z,1.12
2023-03-25T12:04:30.892Z,1.48
2023-03-25T12:07:02.028Z,2.10
2023-03-25T12:09:32.293Z,1.58
2023-03-25T12:12:08.720Z,2.35
2023-03-25T12:14:38.750Z,1.27
2023-03-25T12:17:24.398Z,2.58
2023-03-25T12:20:13.830Z,1.55
2023-03-25T12:23:03.741Z,1.02
2023-03-25T12:25:57.049Z,0.88
2023-03-25T12:28:41.892Z,3.60
2023-03-25T12:31:24.191Z,2.28
2023-03-25T12:34:03.611Z,2.20
2023-03-25T12:37:00.047Z,2.05
2023-03-25T12:39:46.945Z,2.00
2023-03-25T12:42:53.923Z,2.50
2023-03-25T12:45:22.584Z,1.50
2023-03-25T12:47:56.477Z,0.90
2023-03-25T12:50:44.200Z,1.70
2023-03-25T12:53:41.830Z,9.60
2023-03-25T12:56:14.476Z,1.10
2023-03-25T12:58:44.261Z,2.28
2023-03-25T13:01:20.507Z,3.75
2023-03-25T13:04:12.512Z,2.65
2023-03-25T13:07:05.758Z,3.08
2023-03-25T13:09:52.512Z,3.75
2023-03-25T13:12:54.262Z,2.78
2023-03-25T13:15:26.906Z,2.65
2023-03-25T13:18:04.210Z,2.67
2023-03-25T13:20:38.063Z,3.97
2023-03-25T13:23:08.039Z,1.45
2023-03-25T13:25:57.217Z,2.70
2023-03-25T13:28:50.618Z,1.95
2023-03-25T13:31:21.390Z,1.58
2023-03-25T13:34:00.939Z,2.50
2023-03-25T13:39:16.212Z,3.50
2023-03-25T13:41:48.155Z,2.70
2023-03-25T13:44:29.303Z,0.82
2023-03-25T13:47:06.946Z,1.73
2023-03-25T13:49:44.548Z,3.47
2023-03-25T13:52:14.854Z,1.00
2023-03-25T13:55:09.941Z,3.00
2023-03-25T13:58:01.550Z,3.12
2023-03-25T14:00:55.758Z,9.82
2023-03-25T14:03:38.241Z,6.93
2023-03-25T14:06:10.775Z,1.50
2023-03-25T14:09:05.810Z,3.20
2023-03-25T14:11:50.205Z,2.10
2023-03-25T14:14:23.110Z,2.15
2023-03-25T14:16:58.446Z,2.90
2023-03-25T14:19:37.663Z,4.43
2023-03-25T14:22:16.881Z,4.65
2023-03-25T14:24:45.570Z,3.33
2023-03-25T14:27:30.045Z,3.30
2023-03-25T14:30:20.680Z,8.25
2023-03-25T14:32:47.800Z,23.80
2023-03-25T14:35:36.919Z,7.95
2023-03-25T14:38:09.647Z,10.07
2023-03-25T14:40:50.726Z,17.92
2023-03-25T14:43:33.288Z,13.65
2023-03-25T14:46:23.855Z,5.43
2023-03-25T14:49:19.009Z,6.68
2023-03-25T14:51:51.899Z,13.85
2023-03-25T14:54:27.858Z,49.22
2023-03-25T14:57:08.328Z,15.70
2023-03-25T14:59:42.500Z,55.00
2023-03-25T15:02:23.048Z,73.78
2023-03-25T15:04:54.823Z,6.90
2023-03-25T15:07:39.348Z,6.72
2023-03-25T15:10:07.574Z,25.67
2023-03-25T15:12:39.021Z,15.43
2023-03-25T15:15:27.858Z,12.73
2023-03-25T15:17:55.064Z,7.67
2023-03-25T15:20:21.984Z,11.93
2023-03-25T15:23:34.797Z,11.85
2023-03-25T15:26:03.117Z,1.90
2023-03-25T15:28:45.505Z,2.95
2023-03-25T15:31:20.469Z,3.33
2023-03-25T15:34:02.636Z,2.40
2023-03-25T15:36:48.244Z,1.58
2023-03-25T15:39:41.040Z,1.15
2023-03-25T15:42:07.966Z,9.57
2023-03-25T15:44:34.874Z,11.20
2023-03-25T15:47:20.689Z,3.53
2023-03-25T15:50:09.620Z,6.18
2023-03-25T15:53:12.876Z,3.60
2023-03-25T15:55:46.126Z,1.98
2023-03-25T15:58:26.221Z,4.45
2023-03-25T16:00:59.755Z,2.05
2023-03-25T16:03:30.505Z,1.98
2023-03-25T16:06:01.893Z,3.05
2023-03-25T16:08:33.120Z,3.75
2023-03-25T16:11:23.223Z,2.28
2023-03-25T16:14:15.040Z,2.95
2023-03-25T16:16:53.390Z,0.98
2023-03-25T16:19:23.705Z,2.05
2023-03-25T16:21:53.259Z,2.28
2023-03-25T16:24:26.554Z,1.48
2023-03-25T16:26:53.718Z,1.95
2023-03-25T16:29:26.327Z,2.65
2023-03-25T16:32:04.142Z,2.35
2023-03-25T16:34:38.044Z,1.42
2023-03-25T16:37:06.508Z,2.70
2023-03-25T16:39:36.700Z,2.47
2023-03-25T16:42:10.203Z,2.00
2023-03-25T16:44:38.230Z,3.08
2023-03-25T16:47:05.879Z,2.70
2023-03-25T16:49:40.369Z,4.15
2023-03-25T16:52:14.481Z,3.20
2023-03-25T16:57:27.706Z,3.05
2023-03-25T16:59:56.267Z,2.53
2023-03-25T17:02:26.836Z,3.92
2023-03-25T17:04:58.088Z,4.22
2023-03-25T17:07:28.322Z,1.55
2023-03-25T17:09:59.088Z,4.28
2023-03-25T17:12:28.856Z,4.32
2023-03-25T17:20:02.802Z,2.65
2023-03-25T17:22:39.856Z,1.70
2023-03-25T17:25:27.550Z,2.33
2023-03-25T17:28:07.141Z,1.58
2023-03-25T17:30:42.959Z,1.67
2023-03-25T17:33:14.476Z,1.90
2023-03-25T17:35:44.528Z,3.00
2023-03-25T17:38:24.281Z,2.08
2023-03-25T17:43:41.589Z,2.50
2023-03-25T17:46:09.645Z,5.57
2023-03-25T17:48:37.011Z,3.05
2023-03-25T17:51:06.275Z,6.53
2023-03-25T17:53:33.228Z,3.65
2023-03-25T17:56:03.509Z,2.20
2023-03-25T17:58:30.878Z,3.25
2023-03-25T18:00:59.128Z,5.35
2023-03-25T18:03:28.329Z,3.15
2023-03-25T18:05:55.620Z,2.92
2023-03-25T18:08:24.432Z,2.95
2023-03-25T18:10:53.416Z,5.40
2023-03-25T18:13:22.137Z,1.87
2023-03-25T18:15:49.347Z,3.03
2023-03-25T18:18:20.642Z,3.20
2023-03-25T18:20:48.422Z,5.18
2023-03-25T18:23:15.858Z,1.37
2023-03-25T18:25:45.091Z,2.50
2023-03-25T18:28:13.583Z,2.55
2023-03-25T18:30:56.649Z,1.90
2023-03-25T18:33:24.201Z,2.97
2023-03-25T18:35:56.583Z,4.10
2023-03-25T18:38:25.460Z,4.32
2023-03-25T18:40:54.696Z,2.92
2023-03-25T18:43:22.801Z,2.42
2023-03-25T18:45:50.316Z,2.30
2023-03-25T18:48:21.183Z,3.08
2023-03-25T18:51:00.138Z,4.03
2023-03-25T18:53:29.334Z,3.92
2023-03-25T18:58:33.193Z,6.05
2023-03-25T19:01:01.841Z,7.68
2023-03-25T19:03:40.658Z,8.02
2023-03-25T19:06:11.559Z,1.75
2023-03-25T19:08:39.315Z,5.43
2023-03-25T19:11:20.069Z,6.50
2023-03-25T19:13:49.190Z,2.03
2023-03-25T19:16:16.786Z,4.60
2023-03-25T19:18:44.017Z,3.72
2023-03-25T19:21:15.410Z,9.45
2023-03-25T19:23:43.201Z,15.85
2023-03-25T19:26:10.377Z,5.80
2023-03-25T19:28:37.389Z,4.97
2023-03-25T19:31:04.815Z,2.92
2023-03-25T19:33:32.199Z,4.95
2023-03-25T19:36:01.998Z,6.12
2023-03-25T19:38:30.282Z,6.68
2023-03-25T19:41:23.541Z,5.07
2023-03-25T19:43:50.562Z,12.30
2023-03-25T19:46:19.415Z,9.32
2023-03-25T19:48:46.763Z,10.90
2023-03-25T19:51:14.046Z,10.68
2023-03-25T19:53:40.998Z,8.20
2023-03-25T19:56:09.870Z,7.90
2023-03-25T19:58:36.804Z,7.97
2023-03-25T20:01:03.878Z,18.60
2023-03-25T20:03:32.909Z,24.23
2023-03-25T20:06:01.690Z,17.83
2023-03-25T20:08:30.232Z,9.15
2023-03-25T20:10:57.148Z,5.85
2023-03-25T20:13:24.526Z,12.48
2023-03-25T20:15:52.817Z,9.75
2023-03-25T20:18:20.728Z,7.60
2023-03-25T20:20:47.703Z,6.25
2023-03-25T20:23:14.627Z,5.03
2023-03-25T20:25:41.908Z,6.25
2023-03-25T20:28:09.131Z,5.28
2023-03-25T20:30:36.300Z,4.07
2023-03-25T20:33:03.639Z,4.78
2023-03-25T20:35:32.000Z,7.70
2023-03-25T20:37:59.318Z,7.47
2023-03-25T20:40:37.357Z,4.37
2023-03-25T20:43:09.200Z,9.45
2023-03-25T20:45:36.269Z,7.05
2023-03-25T20:48:04.132Z,5.25
2023-03-25T20:50:31.054Z,3.87
2023-03-25T20:52:57.951Z,4.40
2023-03-25T20:55:24.985Z,4.05
2023-03-25T20:57:52.169Z,4.22
2023-03-25T21:00:19.781Z,4.70
2023-03-25T21:02:48.057Z,3.80
2023-03-25T21:05:15.081Z,5.05
2023-03-25T21:07:42.159Z,6.32
2023-03-25T21:10:10.509Z,6.78
2023-03-25T21:12:43.839Z,10.18
2023-03-25T21:15:13.493Z,8.57
2023-03-25T21:17:41.149Z,10.37
2023-03-25T21:20:09.345Z,14.32
2023-03-25T21:22:43.286Z,12.68
2023-03-25T21:25:11.784Z,14.82
2023-03-25T21:27:39.853Z,15.75
2023-03-25T21:30:09.903Z,14.90
2023-03-25T21:35:04.211Z,24.45
2023-03-25T21:37:35.871Z,11.70
2023-03-25T21:40:04.050Z,13.20
2023-03-25T21:42:31.189Z,11.88
2023-03-25T21:44:58.449Z,40.65
2023-03-25T21:47:25.630Z,71.47
2023-03-25T21:49:52.531Z,22.17
2023-03-25T21:52:19.499Z,21.35
2023-03-25T21:54:48.634Z,31.65
2023-03-25T21:57:15.618Z,30.25
2023-03-25T21:59:42.634Z,30.15
2023-03-25T22:02:14.481Z,23.02
2023-03-25T22:04:41.761Z,27.85
2023-03-25T22:07:08.870Z,42.10
2023-03-25T22:09:36.177Z,29.37
2023-03-25T22:12:03.202Z,35.00
2023-03-25T22:14:30.133Z,38.38
2023-03-25T22:16:57.109Z,35.05
2023-03-25T22:19:24.681Z,12.43
2023-03-25T22:21:51.692Z,9.90
2023-03-25T22:24:18.705Z,7.22
2023-03-25T22:26:45.636Z,5.37
2023-03-25T22:29:13.719Z,6.37
2023-03-25T22:31:41.333Z,18.00
2023-03-25T22:34:11.266Z,23.00
2023-03-25T22:39:07.249Z,21.25
2023-03-25T22:41:34.523Z,21.55
2023-03-25T22:44:01.646Z,21.80
2023-03-25T22:46:28.703Z,21.08
2023-03-25T22:48:55.821Z,18.60
2023-03-25T22:51:22.758Z,16.52
2023-03-25T22:53:49.751Z,14.45
2023-03-25T22:56:16.740Z,17.58
2023-03-25T22:58:43.743Z,10.65
2023-03-25T23:01:25.252Z,12.80
2023-03-25T23:03:53.921Z,12.75
2023-03-25T23:06:21.717Z,15.50
2023-03-25T23:08:49.158Z,16.17
2023-03-25T23:11:21.987Z,12.95
2023-03-25T23:13:53.323Z,11.43
2023-03-25T23:16:24.334Z,14.48
2023-03-25T23:18:52.257Z,12.68
2023-03-25T23:21:22.047Z,12.15
2023-03-25T23:23:53.287Z,16.35
2023-03-25T23:26:27.665Z,14.18
2023-03-25T23:29:00.758Z,15.63
2023-03-25T23:31:34.247Z,12.70
2023-03-25T23:34:06.954Z,13.48
2023-03-25T23:36:36.673Z,16.98
2023-03-25T23:39:07.524Z,15.60
2023-03-25T23:41:35.224Z,20.50
2023-03-25T23:44:03.196Z,14.93
2023-03-25T23:46:30.370Z,15.77
2023-03-25T23:49:02.782Z,20.35
2023-03-25T23:51:36.799Z,17.70
2023-03-25T23:54:05.378Z,13.82
2023-03-25T23:56:32.590Z,15.20
2023-03-25T23:59:00.743Z,12.40
